Caerphilly, United Kingdom
Current Conditions -  °F | °C
As of 12:50 PM on Saturday 20 Dec 2014 (Local Time) from EGFF Reporting Station
Broken Clouds Broken Clouds  
Wind Chill: 42°   Ceiling: 2500
Heat Index: 48°   Visibility: 6mi
Dew Point: 41°   Wind: 17mph
Humidity: 76%   Direction: 280°W
Pressure: 30.39"   Gusts: NA
Location:  51.58°N, 3.22°W
Report Text: EGFF 201250Z AUTO 28015KT 9999 BKN025 09/05 Q1029
Loading
Personal Weather Stations






























Interactive Weather Map New forecast layout! Learn more

10-Day Weather Forecast

Advertisements
Track Severe Weather on mobile